createdAt,value
2018-03-31T00:00:05.488Z,17.90
2018-03-31T00:00:37.214Z,17.90
2018-03-31T00:01:09.739Z,17.90
2018-03-31T00:01:41.450Z,17.90
2018-03-31T00:02:13.175Z,17.90
2018-03-31T00:02:44.925Z,17.90
2018-03-31T00:03:16.656Z,17.90
2018-03-31T00:03:49.139Z,17.90
2018-03-31T00:04:20.879Z,17.90
2018-03-31T00:04:52.599Z,17.90
2018-03-31T00:05:25.093Z,17.90
2018-03-31T00:05:56.814Z,18.00
2018-03-31T00:06:29.313Z,18.00
2018-03-31T00:07:01.038Z,18.00
2018-03-31T00:07:32.750Z,18.00
2018-03-31T00:08:05.250Z,18.00
2018-03-31T00:08:36.973Z,18.00
2018-03-31T00:09:09.467Z,18.00
2018-03-31T00:09:41.264Z,18.00
2018-03-31T00:10:13.761Z,17.90
2018-03-31T00:10:45.514Z,17.90
2018-03-31T00:11:17.250Z,17.90
2018-03-31T00:11:48.972Z,18.00
2018-03-31T00:12:21.468Z,17.90
2018-03-31T00:12:53.211Z,17.90
2018-03-31T00:13:24.941Z,17.90
2018-03-31T00:13:56.668Z,17.90
2018-03-31T00:14:29.181Z,17.90
2018-03-31T00:15:00.876Z,17.90
2018-03-31T00:15:32.609Z,17.90
2018-03-31T00:16:05.112Z,17.90
2018-03-31T00:16:36.828Z,17.90
2018-03-31T00:17:08.543Z,17.90
2018-03-31T00:17:40.286Z,17.90
2018-03-31T00:18:11.997Z,17.90
2018-03-31T00:18:43.718Z,18.00
2018-03-31T00:19:15.454Z,17.90
2018-03-31T00:19:47.178Z,17.90
2018-03-31T00:20:19.672Z,17.90
2018-03-31T00:20:51.400Z,17.90
2018-03-31T00:21:23.143Z,17.90
2018-03-31T00:21:54.867Z,17.90
2018-03-31T00:22:27.366Z,17.90
2018-03-31T00:22:59.091Z,17.90
2018-03-31T00:23:30.822Z,17.90
2018-03-31T00:24:02.558Z,17.90
2018-03-31T00:24:34.268Z,17.90
2018-03-31T00:25:05.999Z,17.90
2018-03-31T00:25:37.728Z,17.90
2018-03-31T00:26:09.459Z,17.90
2018-03-31T00:26:41.175Z,17.90
2018-03-31T00:27:12.904Z,17.90
2018-03-31T00:27:44.638Z,17.90
2018-03-31T00:28:16.353Z,17.90
2018-03-31T00:28:48.081Z,17.90
2018-03-31T00:29:19.832Z,17.90
2018-03-31T00:29:51.569Z,17.90
2018-03-31T00:30:24.044Z,17.90
2018-03-31T00:30:55.765Z,17.90
2018-03-31T00:31:27.490Z,17.90
2018-03-31T00:31:59.246Z,18.00
2018-03-31T00:32:30.937Z,17.90
2018-03-31T00:33:02.676Z,17.90
2018-03-31T00:33:34.386Z,17.90
2018-03-31T00:34:06.117Z,17.90
2018-03-31T00:34:38.621Z,17.90
2018-03-31T00:35:10.337Z,17.90
2018-03-31T00:35:42.063Z,17.90
2018-03-31T00:36:14.560Z,17.90
2018-03-31T00:36:46.286Z,17.90
2018-03-31T00:37:18.015Z,17.90
2018-03-31T00:37:50.500Z,17.90
2018-03-31T00:38:22.225Z,17.90
2018-03-31T00:38:54.814Z,17.90
2018-03-31T00:39:26.444Z,17.90
2018-03-31T00:39:58.177Z,17.90
2018-03-31T00:40:30.668Z,17.90
2018-03-31T00:41:02.435Z,17.90
2018-03-31T00:41:34.139Z,17.90
2018-03-31T00:42:06.631Z,17.90
2018-03-31T00:42:38.347Z,17.90
2018-03-31T00:43:10.076Z,17.90
2018-03-31T00:43:42.567Z,17.90
2018-03-31T00:44:14.311Z,17.90
2018-03-31T00:44:46.033Z,17.90
2018-03-31T00:45:17.763Z,17.90
2018-03-31T00:45:50.270Z,17.90
2018-03-31T00:46:22.000Z,17.90
2018-03-31T00:46:53.723Z,17.90
2018-03-31T00:47:26.207Z,17.90
2018-03-31T00:47:57.941Z,17.90
2018-03-31T00:48:29.688Z,17.90
2018-03-31T00:49:01.426Z,17.90
2018-03-31T00:49:33.172Z,17.90
2018-03-31T00:50:04.902Z,17.90
2018-03-31T00:50:37.400Z,17.90
2018-03-31T00:51:09.121Z,17.90
2018-03-31T00:51:40.863Z,17.90
2018-03-31T00:52:13.344Z,17.90
2018-03-31T00:52:45.068Z,17.90
2018-03-31T00:53:16.866Z,17.90
2018-03-31T00:53:48.611Z,17.90
2018-03-31T00:54:20.340Z,17.90
2018-03-31T00:54:52.142Z,17.90
2018-03-31T00:55:24.642Z,17.90
2018-03-31T00:55:56.471Z,17.90
2018-03-31T00:56:28.940Z,17.90
2018-03-31T00:57:00.674Z,17.90
2018-03-31T00:57:32.411Z,17.90
2018-03-31T00:58:04.897Z,17.80
2018-03-31T00:58:36.636Z,17.80
2018-03-31T00:59:08.355Z,17.90
2018-03-31T00:59:40.112Z,17.80
2018-03-31T01:00:11.877Z,17.80
2018-03-31T01:00:43.591Z,17.80
2018-03-31T01:01:15.316Z,17.90
2018-03-31T01:01:47.810Z,17.80
2018-03-31T01:02:19.531Z,17.80
2018-03-31T01:02:52.062Z,17.80
2018-03-31T01:03:23.811Z,17.80
2018-03-31T01:03:55.532Z,17.90
2018-03-31T01:04:27.258Z,17.80
2018-03-31T01:04:58.991Z,17.90
2018-03-31T01:05:31.487Z,17.90
2018-03-31T01:06:03.296Z,17.90
2018-03-31T01:06:34.980Z,17.90
2018-03-31T01:07:06.716Z,17.90
2018-03-31T01:07:38.455Z,17.90
2018-03-31T01:08:10.176Z,17.90
2018-03-31T01:08:41.907Z,17.90
2018-03-31T01:09:14.416Z,17.90
2018-03-31T01:09:46.136Z,17.90
2018-03-31T01:10:17.871Z,17.90
2018-03-31T01:10:49.601Z,17.90
2018-03-31T01:11:22.080Z,17.90
2018-03-31T01:11:53.814Z,17.90
2018-03-31T01:12:25.544Z,17.90
2018-03-31T01:12:57.343Z,17.90
2018-03-31T01:13:29.072Z,17.90
2018-03-31T01:14:00.900Z,17.90
2018-03-31T01:14:32.639Z,17.90
2018-03-31T01:15:04.368Z,17.80
2018-03-31T01:15:36.864Z,17.90
2018-03-31T01:16:08.584Z,17.80
2018-03-31T01:16:40.338Z,17.90
2018-03-31T01:17:12.059Z,17.90
2018-03-31T01:17:44.546Z,17.80
2018-03-31T01:18:16.281Z,17.80
2018-03-31T01:18:48.003Z,17.80
2018-03-31T01:19:20.486Z,17.90
2018-03-31T01:19:52.218Z,17.90
2018-03-31T01:20:24.720Z,17.90
2018-03-31T01:20:56.469Z,17.90
2018-03-31T01:21:28.187Z,17.80
2018-03-31T01:21:59.920Z,17.80
2018-03-31T01:22:31.671Z,17.90
2018-03-31T01:23:03.401Z,17.80
2018-03-31T01:23:35.880Z,17.80
2018-03-31T01:24:07.626Z,17.80
2018-03-31T01:24:40.099Z,17.80
2018-03-31T01:25:11.815Z,17.80
2018-03-31T01:25:44.302Z,17.80
2018-03-31T01:26:16.024Z,17.80
2018-03-31T01:26:47.759Z,17.80
2018-03-31T01:27:19.482Z,17.80
2018-03-31T01:27:51.198Z,17.90
2018-03-31T01:28:22.939Z,17.90
2018-03-31T01:28:54.649Z,17.80
2018-03-31T01:29:26.392Z,17.80
2018-03-31T01:29:58.873Z,17.80
2018-03-31T01:30:30.598Z,17.90
2018-03-31T01:31:02.369Z,17.80
2018-03-31T01:31:34.092Z,17.80
2018-03-31T01:32:05.857Z,17.90
2018-03-31T01:32:38.334Z,17.90
2018-03-31T01:33:10.080Z,17.90
2018-03-31T01:33:41.806Z,17.90
2018-03-31T01:34:13.537Z,17.90
2018-03-31T01:34:45.291Z,17.90
2018-03-31T01:35:17.011Z,17.90
2018-03-31T01:35:48.744Z,17.90
2018-03-31T01:36:21.261Z,17.90
2018-03-31T01:36:52.984Z,17.90
2018-03-31T01:37:24.716Z,17.90
2018-03-31T01:37:56.464Z,17.90
2018-03-31T01:38:28.195Z,17.80
2018-03-31T01:38:59.928Z,17.90
2018-03-31T01:39:32.439Z,17.80
2018-03-31T01:40:04.164Z,17.80
2018-03-31T01:40:35.882Z,17.80
2018-03-31T01:41:08.441Z,17.80
2018-03-31T01:41:40.926Z,17.80
2018-03-31T01:42:12.669Z,17.80
2018-03-31T01:42:44.393Z,17.80
2018-03-31T01:43:16.891Z,17.80
2018-03-31T01:43:48.623Z,17.80
2018-03-31T01:44:20.352Z,17.80
2018-03-31T01:44:52.076Z,17.80
2018-03-31T01:45:24.573Z,17.80
2018-03-31T01:45:56.320Z,17.80
2018-03-31T01:46:28.040Z,17.80
2018-03-31T01:47:00.538Z,17.80
2018-03-31T01:47:32.267Z,17.80
2018-03-31T01:48:04.012Z,17.80
2018-03-31T01:48:35.730Z,17.80
2018-03-31T01:49:08.225Z,17.90
2018-03-31T01:49:40.078Z,17.90
2018-03-31T01:50:12.551Z,17.80
2018-03-31T01:50:44.277Z,17.80
2018-03-31T01:51:16.000Z,17.80
2018-03-31T01:51:47.761Z,17.80
2018-03-31T01:52:19.588Z,17.80
2018-03-31T01:52:52.073Z,17.80
2018-03-31T01:53:23.792Z,17.80
2018-03-31T01:53:55.548Z,17.80
2018-03-31T01:54:28.025Z,17.80
2018-03-31T01:54:59.743Z,17.80
2018-03-31T01:55:32.258Z,17.80
2018-03-31T01:56:03.970Z,17.80
2018-03-31T01:56:35.680Z,17.80
2018-03-31T01:57:08.250Z,17.80
2018-03-31T01:57:39.918Z,17.80
2018-03-31T01:58:11.676Z,17.80
2018-03-31T01:58:43.388Z,17.80
2018-03-31T01:59:15.123Z,17.80
2018-03-31T01:59:47.620Z,17.80
2018-03-31T02:00:19.337Z,17.80
2018-03-31T02:00:51.067Z,17.80
2018-03-31T02:01:23.559Z,17.80
2018-03-31T02:01:55.294Z,17.80
2018-03-31T02:02:27.027Z,17.80
2018-03-31T02:02:59.512Z,17.80
2018-03-31T02:03:31.247Z,17.80
2018-03-31T02:04:02.975Z,17.80
2018-03-31T02:04:34.724Z,17.80
2018-03-31T02:05:06.440Z,17.80
2018-03-31T02:05:38.167Z,17.80
2018-03-31T02:06:09.877Z,17.80
2018-03-31T02:06:41.653Z,17.80
2018-03-31T02:07:13.379Z,17.80
2018-03-31T02:07:45.107Z,17.80
2018-03-31T02:08:16.862Z,17.80
2018-03-31T02:08:48.575Z,17.80
2018-03-31T02:09:21.070Z,17.80
2018-03-31T02:09:52.802Z,17.70
2018-03-31T02:10:24.528Z,17.80
2018-03-31T02:10:57.023Z,17.80
2018-03-31T02:11:28.748Z,17.80
2018-03-31T02:12:00.494Z,17.80
2018-03-31T02:12:32.256Z,17.80
2018-03-31T02:13:04.007Z,17.80
2018-03-31T02:13:35.792Z,17.80
2018-03-31T02:14:08.307Z,17.80
2018-03-31T02:14:40.034Z,17.70
2018-03-31T02:15:11.761Z,17.80
2018-03-31T02:15:44.267Z,17.70
2018-03-31T02:16:16.013Z,17.70
2018-03-31T02:16:47.735Z,17.80
2018-03-31T02:17:19.505Z,17.70
2018-03-31T02:17:51.956Z,17.80
2018-03-31T02:18:23.685Z,17.70
2018-03-31T02:18:55.404Z,17.70
2018-03-31T02:19:27.153Z,17.80
2018-03-31T02:19:59.623Z,17.70
2018-03-31T02:20:31.367Z,17.70
2018-03-31T02:21:03.080Z,17.70
2018-03-31T02:21:34.796Z,17.80
2018-03-31T02:22:06.556Z,17.80
2018-03-31T02:22:38.272Z,17.70
2018-03-31T02:23:10.003Z,17.70
2018-03-31T02:23:41.721Z,17.70
2018-03-31T02:24:13.495Z,17.70
2018-03-31T02:24:45.973Z,17.70
2018-03-31T02:25:17.717Z,17.70
2018-03-31T02:25:49.450Z,17.70
2018-03-31T02:26:21.221Z,17.70
2018-03-31T02:26:52.939Z,17.70
2018-03-31T02:27:24.680Z,17.70
2018-03-31T02:27:56.423Z,17.70
2018-03-31T02:28:28.175Z,17.70
2018-03-31T02:28:59.902Z,17.70
2018-03-31T02:29:31.635Z,17.70
2018-03-31T02:30:03.371Z,17.70
2018-03-31T02:30:35.883Z,17.70
2018-03-31T02:31:07.601Z,17.70
2018-03-31T02:31:39.323Z,17.70
2018-03-31T02:32:11.155Z,17.70
2018-03-31T02:32:43.665Z,17.70
2018-03-31T02:33:15.400Z,17.70
2018-03-31T02:33:47.148Z,17.70
2018-03-31T02:34:18.881Z,17.70
2018-03-31T02:34:50.607Z,17.70
2018-03-31T02:35:22.370Z,17.80
2018-03-31T02:35:54.104Z,17.70
2018-03-31T02:36:26.581Z,17.80
2018-03-31T02:36:58.340Z,17.80
2018-03-31T02:37:30.180Z,17.80
2018-03-31T02:38:02.641Z,17.70
2018-03-31T02:38:34.383Z,17.70
2018-03-31T02:39:06.104Z,17.80
2018-03-31T02:39:37.847Z,17.80
2018-03-31T02:40:09.580Z,17.80
2018-03-31T02:40:42.075Z,17.70
2018-03-31T02:41:13.820Z,17.70
2018-03-31T02:41:45.554Z,17.70
2018-03-31T02:42:17.272Z,17.70
2018-03-31T02:42:49.755Z,17.70
2018-03-31T02:43:21.509Z,17.70
2018-03-31T02:43:53.235Z,17.70
2018-03-31T02:44:25.727Z,17.70
2018-03-31T02:44:57.451Z,17.70
2018-03-31T02:45:29.175Z,17.70
2018-03-31T02:46:01.673Z,17.70
2018-03-31T02:46:33.400Z,17.70
2018-03-31T02:47:05.149Z,17.70
2018-03-31T02:47:36.878Z,17.60
2018-03-31T02:48:08.592Z,17.60
2018-03-31T02:48:40.320Z,17.60
2018-03-31T02:49:12.053Z,17.60
2018-03-31T02:49:43.787Z,17.60
2018-03-31T02:50:15.513Z,17.60
2018-03-31T02:50:47.248Z,17.60
2018-03-31T02:51:18.979Z,17.70
2018-03-31T02:51:50.715Z,17.60
2018-03-31T02:52:23.225Z,17.70
2018-03-31T02:52:54.953Z,17.70
2018-03-31T02:53:26.712Z,17.70
2018-03-31T02:53:58.453Z,17.70
2018-03-31T02:54:30.262Z,17.60
2018-03-31T02:55:02.770Z,17.70
2018-03-31T02:55:34.495Z,17.70
2018-03-31T02:56:06.219Z,17.70
2018-03-31T02:56:37.969Z,17.70
2018-03-31T02:57:10.471Z,17.70
2018-03-31T02:57:42.218Z,17.70
2018-03-31T02:58:13.937Z,17.70
2018-03-31T02:58:45.685Z,17.60
2018-03-31T02:59:17.427Z,17.60
2018-03-31T02:59:49.164Z,17.60
2018-03-31T03:00:20.888Z,17.60
2018-03-31T03:00:52.624Z,17.60
2018-03-31T03:01:25.147Z,17.70
2018-03-31T03:01:56.861Z,17.70
2018-03-31T03:02:28.604Z,17.70
2018-03-31T03:03:00.320Z,17.70
2018-03-31T03:03:32.893Z,17.70
2018-03-31T03:04:04.619Z,17.70
2018-03-31T03:04:37.121Z,17.70
2018-03-31T03:05:08.865Z,17.70
2018-03-31T03:05:40.596Z,17.80
2018-03-31T03:06:12.325Z,17.80
2018-03-31T03:06:44.816Z,17.70
2018-03-31T03:07:16.556Z,17.70
2018-03-31T03:07:48.275Z,17.70
2018-03-31T03:08:20.880Z,17.70
2018-03-31T03:08:52.580Z,17.70
2018-03-31T03:09:25.097Z,17.70
2018-03-31T03:09:56.816Z,17.70
2018-03-31T03:10:28.538Z,17.70
2018-03-31T03:11:00.391Z,17.70
2018-03-31T03:11:32.119Z,17.70
2018-03-31T03:12:04.632Z,17.70
2018-03-31T03:12:36.349Z,17.70
2018-03-31T03:13:08.086Z,17.70
2018-03-31T03:13:39.828Z,17.70
2018-03-31T03:14:11.562Z,17.70
2018-03-31T03:14:44.072Z,17.70
2018-03-31T03:15:15.800Z,17.70
2018-03-31T03:15:47.524Z,17.70
2018-03-31T03:16:19.255Z,17.70
2018-03-31T03:16:51.750Z,17.70
2018-03-31T03:17:23.472Z,17.70
2018-03-31T03:17:55.183Z,17.70
2018-03-31T03:18:26.907Z,17.70
2018-03-31T03:18:58.699Z,17.70
2018-03-31T03:19:30.432Z,17.70
2018-03-31T03:20:02.928Z,17.70
2018-03-31T03:20:34.654Z,17.70
2018-03-31T03:21:06.377Z,17.70
2018-03-31T03:21:38.860Z,17.70
2018-03-31T03:22:10.695Z,17.70
2018-03-31T03:22:43.173Z,17.70
2018-03-31T03:23:14.906Z,17.70
2018-03-31T03:23:46.636Z,17.70
2018-03-31T03:24:19.118Z,17.70
2018-03-31T03:24:50.866Z,17.60
2018-03-31T03:25:22.590Z,17.70
2018-03-31T03:25:55.095Z,17.70
2018-03-31T03:26:26.815Z,17.70
2018-03-31T03:26:58.544Z,17.70
2018-03-31T03:27:31.057Z,17.70
2018-03-31T03:28:02.783Z,17.70
2018-03-31T03:28:34.528Z,17.70
2018-03-31T03:29:06.267Z,17.60
2018-03-31T03:29:37.988Z,17.70
2018-03-31T03:30:10.477Z,17.60
2018-03-31T03:30:42.206Z,17.60
2018-03-31T03:31:13.946Z,17.60
2018-03-31T03:31:46.438Z,17.70
2018-03-31T03:32:18.140Z,17.70
2018-03-31T03:32:50.666Z,17.70
2018-03-31T03:33:22.511Z,17.70
2018-03-31T03:33:54.208Z,17.70
2018-03-31T03:34:25.996Z,17.70
2018-03-31T03:34:58.470Z,17.70
2018-03-31T03:35:30.181Z,17.70
2018-03-31T03:36:01.904Z,17.70
2018-03-31T03:36:33.632Z,17.70
2018-03-31T03:37:06.125Z,17.70
2018-03-31T03:37:37.847Z,17.70
2018-03-31T03:38:09.578Z,17.70
2018-03-31T03:38:42.096Z,17.70
2018-03-31T03:39:13.807Z,17.70
2018-03-31T03:39:45.536Z,17.70
2018-03-31T03:40:17.599Z,17.60
2018-03-31T03:40:49.316Z,17.70
2018-03-31T03:41:21.831Z,17.70
2018-03-31T03:41:53.569Z,17.70
2018-03-31T03:42:25.294Z,17.70
2018-03-31T03:42:57.016Z,17.70
2018-03-31T03:43:29.518Z,17.70
2018-03-31T03:44:01.263Z,17.70
2018-03-31T03:44:33.008Z,17.70
2018-03-31T03:45:04.732Z,17.70
2018-03-31T03:45:36.499Z,17.70
2018-03-31T03:46:08.220Z,17.70
2018-03-31T03:46:39.951Z,17.70
2018-03-31T03:47:12.458Z,17.70
2018-03-31T03:47:44.294Z,17.70
2018-03-31T03:48:16.758Z,17.70
2018-03-31T03:48:48.476Z,17.70
2018-03-31T03:49:20.207Z,17.60
2018-03-31T03:49:52.707Z,17.70
2018-03-31T03:50:24.611Z,17.70
2018-03-31T03:50:57.112Z,17.70
2018-03-31T03:51:28.844Z,17.70
2018-03-31T03:52:00.571Z,17.70
2018-03-31T03:52:32.326Z,17.70
2018-03-31T03:53:04.054Z,17.70
2018-03-31T03:53:36.539Z,17.70
2018-03-31T03:54:08.264Z,17.70
2018-03-31T03:54:40.762Z,17.70
2018-03-31T03:55:12.480Z,17.70
2018-03-31T03:55:44.200Z,17.70
2018-03-31T03:56:16.716Z,17.70
2018-03-31T03:56:48.450Z,17.70
2018-03-31T03:57:20.177Z,17.70
2018-03-31T03:57:51.919Z,17.70
2018-03-31T03:58:23.639Z,17.70
2018-03-31T03:58:55.361Z,17.70
2018-03-31T03:59:27.097Z,17.60
2018-03-31T03:59:58.818Z,17.70
2018-03-31T04:00:30.540Z,17.70
2018-03-31T04:01:02.287Z,17.60
2018-03-31T04:01:34.004Z,17.60
2018-03-31T04:02:06.577Z,17.60
2018-03-31T04:02:39.074Z,17.60
2018-03-31T04:03:10.806Z,17.60
2018-03-31T04:03:42.547Z,17.70
2018-03-31T04:04:14.264Z,17.70
2018-03-31T04:04:46.767Z,17.70
2018-03-31T04:05:18.524Z,17.70
2018-03-31T04:05:50.261Z,17.70
2018-03-31T04:06:22.009Z,17.70
2018-03-31T04:06:53.777Z,17.70
2018-03-31T04:07:25.465Z,17.70
2018-03-31T04:07:57.227Z,17.70
2018-03-31T04:08:28.948Z,17.70
2018-03-31T04:09:01.451Z,17.70
2018-03-31T04:09:33.152Z,17.70
2018-03-31T04:10:04.895Z,17.70
2018-03-31T04:10:36.599Z,17.70
2018-03-31T04:11:08.321Z,17.60
2018-03-31T04:11:40.061Z,17.60
2018-03-31T04:12:11.813Z,17.60
2018-03-31T04:12:43.504Z,17.60
2018-03-31T04:13:16.003Z,17.60
2018-03-31T04:13:47.728Z,17.60
2018-03-31T04:14:19.451Z,17.60
2018-03-31T04:14:51.974Z,17.60
2018-03-31T04:15:23.704Z,17.60
2018-03-31T04:15:55.441Z,17.60
2018-03-31T04:16:27.163Z,17.60
2018-03-31T04:16:59.645Z,17.60
2018-03-31T04:17:31.381Z,17.60
2018-03-31T04:18:03.107Z,17.60
2018-03-31T04:18:35.597Z,17.60
2018-03-31T04:19:07.313Z,17.60
2018-03-31T04:19:39.824Z,17.60
2018-03-31T04:20:11.549Z,17.60
2018-03-31T04:20:43.294Z,17.70
2018-03-31T04:21:15.045Z,17.60
2018-03-31T04:21:46.817Z,17.60
2018-03-31T04:22:18.592Z,17.60
2018-03-31T04:22:50.294Z,17.60
2018-03-31T04:23:22.018Z,17.60
2018-03-31T04:23:53.734Z,17.50
2018-03-31T04:24:25.469Z,17.60
2018-03-31T04:24:57.983Z,17.60
2018-03-31T04:25:29.821Z,17.60
2018-03-31T04:26:02.288Z,17.60
2018-03-31T04:26:34.006Z,17.60
2018-03-31T04:27:05.760Z,17.60
2018-03-31T04:27:37.514Z,17.60
2018-03-31T04:28:09.963Z,17.60
2018-03-31T04:28:41.699Z,17.60
2018-03-31T04:29:13.432Z,17.60
2018-03-31T04:29:45.180Z,17.70
2018-03-31T04:30:16.928Z,17.70
2018-03-31T04:30:48.668Z,17.60
2018-03-31T04:31:20.391Z,17.60
2018-03-31T04:31:52.891Z,17.60
2018-03-31T04:32:24.646Z,17.60
2018-03-31T04:32:56.363Z,17.60
2018-03-31T04:33:28.846Z,17.70
2018-03-31T04:34:00.572Z,17.70
2018-03-31T04:34:32.291Z,17.60
2018-03-31T04:35:04.783Z,17.60
2018-03-31T04:35:36.529Z,17.60
2018-03-31T04:36:08.280Z,17.60
2018-03-31T04:36:40.006Z,17.60
2018-03-31T04:37:12.493Z,17.50
2018-03-31T04:37:44.216Z,17.50
2018-03-31T04:38:15.939Z,17.50
2018-03-31T04:38:48.443Z,17.50
2018-03-31T04:39:20.181Z,17.50
2018-03-31T04:39:51.908Z,17.60
2018-03-31T04:40:24.502Z,17.60
2018-03-31T04:40:56.203Z,17.60
2018-03-31T04:41:28.705Z,17.70
2018-03-31T04:42:00.441Z,17.70
2018-03-31T04:42:32.191Z,17.60
2018-03-31T04:43:03.915Z,17.60
2018-03-31T04:43:35.689Z,17.60
2018-03-31T04:44:07.438Z,17.60
2018-03-31T04:44:39.167Z,17.60
2018-03-31T04:45:10.918Z,17.60
2018-03-31T04:45:42.766Z,17.60
2018-03-31T04:46:14.453Z,17.70
2018-03-31T04:46:46.197Z,17.70
2018-03-31T04:47:17.920Z,17.60
2018-03-31T04:47:49.642Z,17.60
2018-03-31T04:48:21.425Z,17.60
2018-03-31T04:48:53.088Z,17.60
2018-03-31T04:49:25.611Z,17.60
2018-03-31T04:49:57.356Z,17.60
2018-03-31T04:50:29.177Z,17.60
2018-03-31T04:51:01.627Z,17.60
2018-03-31T04:51:33.348Z,17.60
2018-03-31T04:52:05.847Z,17.60
2018-03-31T04:52:37.566Z,17.60
2018-03-31T04:53:09.318Z,17.60
2018-03-31T04:53:41.027Z,17.50
2018-03-31T04:54:13.524Z,17.60
2018-03-31T04:54:46.019Z,17.60
2018-03-31T04:55:17.756Z,17.60
2018-03-31T04:55:49.490Z,17.60
2018-03-31T04:56:21.219Z,17.60
2018-03-31T04:56:52.970Z,17.60
2018-03-31T04:57:24.678Z,17.50
2018-03-31T04:57:57.188Z,17.50
2018-03-31T04:58:28.919Z,17.50
2018-03-31T04:59:00.698Z,17.50
2018-03-31T04:59:32.413Z,17.50
2018-03-31T05:00:04.129Z,17.60
2018-03-31T05:00:36.625Z,17.60
2018-03-31T05:01:08.389Z,17.60
2018-03-31T05:01:40.133Z,17.60
2018-03-31T05:02:11.872Z,17.60
2018-03-31T05:02:43.574Z,17.60
2018-03-31T05:03:15.341Z,17.60
2018-03-31T05:03:47.066Z,17.60
2018-03-31T05:04:18.998Z,17.60
2018-03-31T05:04:50.723Z,17.60
2018-03-31T05:05:22.466Z,17.60
2018-03-31T05:05:54.201Z,17.60
2018-03-31T05:06:25.951Z,17.60
2018-03-31T05:06:57.696Z,17.60
2018-03-31T05:07:29.439Z,17.60
2018-03-31T05:08:01.149Z,17.60
2018-03-31T05:08:32.893Z,17.60
2018-03-31T05:09:04.649Z,17.60
2018-03-31T05:09:36.388Z,17.60
2018-03-31T05:10:08.156Z,17.60
2018-03-31T05:10:39.875Z,17.60
2018-03-31T05:11:11.610Z,17.60
2018-03-31T05:11:43.336Z,17.60
2018-03-31T05:12:15.060Z,17.60
2018-03-31T05:12:47.548Z,17.60
2018-03-31T05:13:19.287Z,17.60
2018-03-31T05:13:51.043Z,17.60
2018-03-31T05:14:22.764Z,17.60
2018-03-31T05:14:55.362Z,17.60
2018-03-31T05:15:27.082Z,17.60
2018-03-31T05:15:59.564Z,17.60
2018-03-31T05:16:31.300Z,17.60
2018-03-31T05:17:03.015Z,17.60
2018-03-31T05:17:35.517Z,17.60
2018-03-31T05:18:07.295Z,17.60
2018-03-31T05:18:39.033Z,17.50
2018-03-31T05:19:10.802Z,17.50
2018-03-31T05:19:42.555Z,17.50
2018-03-31T05:20:15.037Z,17.50
2018-03-31T05:20:46.780Z,17.50
2018-03-31T05:21:18.597Z,17.60
2018-03-31T05:21:51.111Z,17.60
2018-03-31T05:22:22.834Z,17.60
2018-03-31T05:22:54.575Z,17.50
2018-03-31T05:23:26.334Z,17.50
2018-03-31T05:23:58.057Z,17.60
2018-03-31T05:24:29.823Z,17.60
2018-03-31T05:25:01.573Z,17.60
2018-03-31T05:25:33.588Z,17.60
2018-03-31T05:26:05.366Z,17.60
2018-03-31T05:26:37.073Z,17.60
2018-03-31T05:27:09.591Z,17.60
2018-03-31T05:27:41.344Z,17.60
2018-03-31T05:28:13.074Z,17.60
2018-03-31T05:28:44.875Z,17.60
2018-03-31T05:29:16.620Z,17.60
2018-03-31T05:29:48.319Z,17.60
2018-03-31T05:30:20.211Z,17.60
2018-03-31T05:30:52.735Z,17.60
2018-03-31T05:31:24.455Z,17.60
2018-03-31T05:31:56.208Z,17.60
2018-03-31T05:32:27.952Z,17.60
2018-03-31T05:32:59.703Z,17.50
2018-03-31T05:33:31.464Z,17.50
2018-03-31T05:34:03.235Z,17.50
2018-03-31T05:34:35.760Z,17.50
2018-03-31T05:35:07.475Z,17.50
2018-03-31T05:35:39.227Z,17.50
2018-03-31T05:36:10.974Z,17.50
2018-03-31T05:36:42.718Z,17.50
2018-03-31T05:37:14.551Z,17.50
2018-03-31T05:37:46.278Z,17.50
2018-03-31T05:38:18.049Z,17.50
2018-03-31T05:38:49.795Z,17.50
2018-03-31T05:39:21.550Z,17.50
2018-03-31T05:39:53.299Z,17.50
2018-03-31T05:40:25.045Z,17.50
2018-03-31T05:40:56.784Z,17.50
2018-03-31T05:41:28.517Z,17.50
2018-03-31T05:42:00.292Z,17.50
2018-03-31T05:42:32.029Z,17.50
2018-03-31T05:43:03.775Z,17.50
2018-03-31T05:43:35.510Z,17.50
2018-03-31T05:44:07.237Z,17.50
2018-03-31T05:44:38.961Z,17.50
2018-03-31T05:45:10.692Z,17.50
2018-03-31T05:45:43.195Z,17.60
2018-03-31T05:46:14.928Z,17.60
2018-03-31T05:46:46.656Z,17.50
2018-03-31T05:47:18.385Z,17.60
2018-03-31T05:47:50.860Z,17.50
2018-03-31T05:48:22.587Z,17.60
2018-03-31T05:48:55.075Z,17.50
2018-03-31T05:49:26.878Z,17.50
2018-03-31T05:49:58.579Z,17.50
2018-03-31T05:50:30.319Z,17.50
2018-03-31T05:51:02.071Z,17.60
2018-03-31T05:51:33.788Z,17.60
2018-03-31T05:52:05.524Z,17.60
2018-03-31T05:52:37.255Z,17.60
2018-03-31T05:53:09.836Z,17.60
2018-03-31T05:53:41.691Z,17.60
2018-03-31T05:54:14.195Z,17.50
2018-03-31T05:54:45.957Z,17.50
2018-03-31T05:55:17.669Z,17.50
2018-03-31T05:55:49.402Z,17.50
2018-03-31T05:56:21.125Z,17.50
2018-03-31T05:56:52.913Z,17.50
2018-03-31T05:57:24.676Z,17.50
2018-03-31T05:57:56.634Z,17.40
2018-03-31T05:58:28.939Z,16.90
2018-03-31T05:59:00.665Z,17.40
2018-03-31T05:59:32.399Z,17.50
2018-03-31T06:00:04.134Z,17.50
2018-03-31T06:00:36.923Z,17.40
2018-03-31T06:01:08.631Z,17.40
2018-03-31T06:01:40.352Z,17.40
2018-03-31T06:02:12.073Z,17.50
2018-03-31T06:02:43.808Z,17.50
2018-03-31T06:03:15.531Z,17.50
2018-03-31T06:03:47.271Z,17.50
2018-03-31T06:04:19.795Z,17.50
2018-03-31T06:04:51.518Z,17.50
2018-03-31T06:05:23.251Z,17.50
2018-03-31T06:05:54.998Z,17.50
2018-03-31T06:06:26.703Z,17.50
2018-03-31T06:06:59.198Z,17.40
2018-03-31T06:07:30.954Z,17.40
2018-03-31T06:08:02.696Z,17.50
2018-03-31T06:08:34.415Z,17.50
2018-03-31T06:09:06.152Z,17.50
2018-03-31T06:09:38.649Z,17.50
2018-03-31T06:10:10.376Z,17.50
2018-03-31T06:10:42.099Z,17.50
2018-03-31T06:11:13.835Z,17.50
2018-03-31T06:11:45.556Z,17.50
2018-03-31T06:12:17.277Z,17.50
2018-03-31T06:12:49.032Z,17.50
2018-03-31T06:13:20.745Z,17.50
2018-03-31T06:13:52.469Z,17.40
2018-03-31T06:14:24.218Z,17.50
2018-03-31T06:14:56.703Z,17.50
2018-03-31T06:15:28.431Z,17.50
2018-03-31T06:16:00.163Z,17.50
2018-03-31T06:16:31.895Z,17.50
2018-03-31T06:17:04.376Z,17.50
2018-03-31T06:17:36.881Z,17.50
2018-03-31T06:18:08.595Z,17.50
2018-03-31T06:18:40.314Z,17.50
2018-03-31T06:19:12.040Z,17.50
2018-03-31T06:19:43.772Z,17.50
2018-03-31T06:20:15.506Z,17.50
2018-03-31T06:20:47.231Z,17.40
2018-03-31T06:21:18.968Z,17.50
2018-03-31T06:21:50.794Z,17.50
2018-03-31T06:22:22.511Z,17.50
2018-03-31T06:22:54.230Z,17.50
2018-03-31T06:23:25.973Z,17.50
2018-03-31T06:23:57.698Z,17.50
2018-03-31T06:24:29.423Z,17.50
2018-03-31T06:25:01.131Z,17.50
2018-03-31T06:25:33.620Z,17.50
2018-03-31T06:26:05.355Z,17.50
2018-03-31T06:26:37.087Z,17.50
2018-03-31T06:27:09.567Z,17.50
2018-03-31T06:27:41.305Z,17.50
2018-03-31T06:28:13.060Z,17.50
2018-03-31T06:28:45.647Z,17.50
2018-03-31T06:29:17.343Z,17.50
2018-03-31T06:29:49.078Z,17.50
2018-03-31T06:30:20.807Z,17.40
2018-03-31T06:30:52.544Z,17.40
2018-03-31T06:31:24.336Z,17.50
2018-03-31T06:31:56.829Z,17.50
2018-03-31T06:32:28.676Z,17.50
2018-03-31T06:33:00.372Z,17.50
2018-03-31T06:33:32.861Z,17.50
2018-03-31T06:34:04.595Z,17.50
2018-03-31T06:34:36.352Z,17.50
2018-03-31T06:35:08.083Z,17.40
2018-03-31T06:35:39.821Z,17.40
2018-03-31T06:36:12.316Z,17.40
2018-03-31T06:36:44.061Z,17.40
2018-03-31T06:37:15.779Z,17.50
2018-03-31T06:37:47.509Z,17.50
2018-03-31T06:38:19.990Z,17.50
2018-03-31T06:38:51.730Z,17.50
2018-03-31T06:39:23.459Z,17.50
2018-03-31T06:39:55.952Z,17.50
2018-03-31T06:40:27.685Z,17.50
2018-03-31T06:40:59.413Z,17.50
2018-03-31T06:41:31.145Z,17.50
2018-03-31T06:42:02.866Z,17.50
2018-03-31T06:42:34.657Z,17.50
2018-03-31T06:43:06.354Z,17.50
2018-03-31T06:43:38.054Z,17.50
2018-03-31T06:44:09.789Z,17.50
2018-03-31T06:44:41.516Z,17.50
2018-03-31T06:45:14.024Z,17.50
2018-03-31T06:45:45.756Z,17.50
2018-03-31T06:46:17.464Z,17.50
2018-03-31T06:46:49.965Z,17.40
2018-03-31T06:47:21.693Z,17.40
2018-03-31T06:47:53.414Z,17.40
2018-03-31T06:48:25.915Z,17.40
2018-03-31T06:48:57.672Z,17.50
2018-03-31T06:49:29.409Z,17.40
2018-03-31T06:50:01.126Z,17.50
2018-03-31T06:50:32.866Z,17.50